KDEH/DEH METAR and TAF weather

Enter ICAO airport designator
Station Type Date Time Source
KDEH METAR 2018/12/12 04:55 UTC NOAA

KDEH 120455Z AUTO 13009G15KT 10SM FEW110 M01/M01 A2976 RMK AO2


Station Type Date Time Source
KDEH Decoded METAR 2018/12/12 04:55 UTC NOAA

Decorah, IA, United States (KDEH) 43-17N 091-44W
Dec 11, 2018 - 11:55 PM EST / 2018.12.12 0455 UTC
Wind: from the SE (130 degrees) at 10 MPH (9 KT) gusting to 17 MPH (15 KT):0
Visibility: 10 mile(s):0
Sky conditions: mostly clear
Temperature: 30 F (-1 C)
Windchill: 21 F (-6 C):1
Dew Point: 30 F (-1 C)
Relative Humidity: 100%
Pressure (altimeter): 29.76 in. Hg (1007 hPa)
ob: KDEH 120455Z AUTO 13009G15KT 10SM FEW110 M01/M01 A2976 RMK AO2
cycle: 5

Station Type Date Time Source
KDEH TAF UTC NOAA

Error!


Example: see airport list